createdAt,value
2024-05-09T00:00:59.864Z,603.00
2024-05-09T00:01:59.865Z,602.00
2024-05-09T00:02:59.850Z,605.00
2024-05-09T00:03:59.869Z,602.00
2024-05-09T00:04:59.948Z,602.00
2024-05-09T00:05:59.971Z,603.00
2024-05-09T00:06:59.844Z,605.00
2024-05-09T00:07:59.875Z,603.00
2024-05-09T00:08:59.855Z,602.00
2024-05-09T00:09:59.862Z,602.00
2024-05-09T00:10:59.916Z,604.00
2024-05-09T00:12:00.063Z,600.00
2024-05-09T00:12:59.851Z,606.00
2024-05-09T00:13:59.887Z,601.00
2024-05-09T00:14:59.878Z,600.00
2024-05-09T00:15:59.868Z,603.00
2024-05-09T00:16:59.891Z,603.00
2024-05-09T00:18:05.729Z,605.00
2024-05-09T00:19:00.022Z,605.00
2024-05-09T00:19:59.886Z,605.00
2024-05-09T00:21:00.000Z,605.00
2024-05-09T00:21:59.877Z,605.00
2024-05-09T00:22:59.893Z,603.00
2024-05-09T00:23:59.861Z,605.00
2024-05-09T00:24:59.876Z,602.00
2024-05-09T00:25:59.956Z,602.00
2024-05-09T00:26:59.878Z,604.00
2024-05-09T00:27:59.890Z,602.00
2024-05-09T00:28:59.923Z,601.00
2024-05-09T00:29:59.894Z,603.00
2024-05-09T00:30:59.904Z,602.00
2024-05-09T00:32:00.017Z,604.00
2024-05-09T00:32:59.989Z,600.00
2024-05-09T00:34:00.047Z,603.00
2024-05-09T00:34:59.924Z,602.00
2024-05-09T00:35:59.892Z,602.00
2024-05-09T00:36:59.909Z,607.00
2024-05-09T00:38:00.107Z,602.00
2024-05-09T00:38:59.894Z,602.00
2024-05-09T00:39:59.895Z,604.00
2024-05-09T00:40:59.965Z,600.00
2024-05-09T00:42:04.956Z,603.00
2024-05-09T00:42:59.936Z,604.00
2024-05-09T00:44:00.029Z,604.00
2024-05-09T00:44:59.985Z,604.00
2024-05-09T00:45:59.994Z,604.00
2024-05-09T00:47:00.029Z,605.00
2024-05-09T00:48:00.262Z,604.00
2024-05-09T00:49:00.025Z,604.00
2024-05-09T00:50:00.023Z,604.00
2024-05-09T00:51:00.022Z,604.00
2024-05-09T00:52:00.023Z,604.00
2024-05-09T00:53:00.080Z,602.00
2024-05-09T00:54:00.124Z,600.00
2024-05-09T00:55:00.188Z,603.00
2024-05-09T00:56:01.033Z,604.00
2024-05-09T00:57:00.345Z,605.00
2024-05-09T00:58:00.467Z,600.00
2024-05-09T00:59:00.657Z,601.00
2024-05-09T01:00:00.725Z,601.00
2024-05-09T01:01:00.877Z,606.00
2024-05-09T01:02:01.043Z,601.00
2024-05-09T01:03:01.288Z,603.00
2024-05-09T01:04:01.327Z,604.00
2024-05-09T01:05:01.426Z,605.00
2024-05-09T01:06:01.464Z,608.00
2024-05-09T01:07:01.556Z,606.00
2024-05-09T01:08:01.768Z,606.00
2024-05-09T01:09:01.791Z,606.00
2024-05-09T01:10:01.906Z,606.00
2024-05-09T01:11:02.154Z,608.00
2024-05-09T01:12:02.403Z,606.00
2024-05-09T01:13:02.294Z,603.00
2024-05-09T01:14:02.465Z,605.00
2024-05-09T01:15:02.565Z,605.00
2024-05-09T01:16:02.661Z,601.00
2024-05-09T01:17:02.864Z,601.00
2024-05-09T01:18:03.112Z,605.00
2024-05-09T01:19:03.344Z,606.00
2024-05-09T01:20:05.794Z,606.00
2024-05-09T01:21:03.207Z,605.00
2024-05-09T01:22:07.073Z,600.00
2024-05-09T01:23:03.230Z,601.00
2024-05-09T01:24:03.188Z,601.00
2024-05-09T01:25:03.209Z,602.00
2024-05-09T01:26:03.239Z,600.00
2024-05-09T01:27:03.214Z,600.00
2024-05-09T01:28:03.226Z,601.00
2024-05-09T01:29:03.232Z,601.00
2024-05-09T01:30:07.039Z,604.00
2024-05-09T01:31:04.202Z,604.00
2024-05-09T01:32:03.280Z,604.00
2024-05-09T01:33:03.574Z,604.00
2024-05-09T01:34:03.276Z,606.00
2024-05-09T01:35:03.241Z,602.00
2024-05-09T01:36:03.210Z,602.00
2024-05-09T01:37:03.219Z,604.00
2024-05-09T01:38:03.284Z,605.00
2024-05-09T01:39:03.336Z,605.00
2024-05-09T01:40:03.669Z,600.00
2024-05-09T01:41:03.615Z,600.00
2024-05-09T01:42:08.657Z,602.00
2024-05-09T01:43:03.627Z,602.00
2024-05-09T01:44:03.690Z,602.00
2024-05-09T01:45:03.639Z,603.00
2024-05-09T01:46:03.648Z,603.00
2024-05-09T01:47:03.670Z,604.00
2024-05-09T01:48:04.104Z,602.00
2024-05-09T01:49:03.765Z,601.00
2024-05-09T01:50:03.760Z,605.00
2024-05-09T01:51:03.677Z,603.00
2024-05-09T01:52:03.777Z,600.00
2024-05-09T01:53:03.950Z,601.00
2024-05-09T01:54:04.010Z,602.00
2024-05-09T01:55:06.481Z,600.00
2024-05-09T01:56:04.156Z,601.00
2024-05-09T01:57:04.135Z,601.00
2024-05-09T01:58:04.203Z,601.00
2024-05-09T01:59:04.196Z,602.00
2024-05-09T02:00:06.073Z,604.00
2024-05-09T02:01:04.188Z,604.00
2024-05-09T02:02:04.268Z,604.00
2024-05-09T02:03:04.293Z,605.00
2024-05-09T02:04:04.453Z,605.00
2024-05-09T02:05:04.300Z,599.00
2024-05-09T02:06:04.201Z,603.00
2024-05-09T02:07:04.174Z,601.00
2024-05-09T02:08:04.220Z,602.00
2024-05-09T02:09:04.195Z,603.00
2024-05-09T02:10:10.813Z,603.00
2024-05-09T02:11:05.285Z,603.00
2024-05-09T02:12:08.936Z,602.00
2024-05-09T02:13:04.190Z,603.00
2024-05-09T02:14:04.223Z,604.00
2024-05-09T02:15:04.196Z,604.00
2024-05-09T02:16:04.198Z,606.00
2024-05-09T02:17:04.273Z,602.00
2024-05-09T02:18:04.558Z,605.00
2024-05-09T02:19:04.277Z,601.00
2024-05-09T02:20:06.012Z,603.00
2024-05-09T02:21:04.361Z,602.00
2024-05-09T02:22:04.221Z,603.00
2024-05-09T02:23:04.898Z,601.00
2024-05-09T02:24:04.276Z,603.00
2024-05-09T02:25:04.224Z,602.00
2024-05-09T02:26:04.335Z,601.00
2024-05-09T02:27:04.395Z,603.00
2024-05-09T02:28:04.523Z,602.00
2024-05-09T02:29:04.620Z,603.00
2024-05-09T02:30:09.920Z,600.00
2024-05-09T02:31:05.734Z,600.00
2024-05-09T02:32:04.784Z,601.00
2024-05-09T02:33:04.975Z,601.00
2024-05-09T02:34:04.960Z,602.00
2024-05-09T02:35:04.765Z,600.00
2024-05-09T02:36:04.743Z,600.00
2024-05-09T02:37:04.758Z,602.00
2024-05-09T02:38:04.813Z,604.00
2024-05-09T02:39:04.883Z,600.00
2024-05-09T02:40:05.749Z,600.00
2024-05-09T02:41:05.061Z,603.00
2024-05-09T02:42:05.095Z,601.00
2024-05-09T02:43:05.388Z,603.00
2024-05-09T02:44:05.298Z,601.00
2024-05-09T02:45:05.344Z,604.00
2024-05-09T02:46:05.458Z,605.00
2024-05-09T02:47:05.630Z,605.00
2024-05-09T02:48:05.910Z,605.00
2024-05-09T02:49:05.774Z,603.00
2024-05-09T02:50:07.818Z,604.00
2024-05-09T02:51:05.852Z,601.00
2024-05-09T02:52:05.860Z,601.00
2024-05-09T02:53:06.354Z,600.00
2024-05-09T02:54:06.136Z,601.00
2024-05-09T02:55:06.259Z,604.00
2024-05-09T02:56:06.407Z,600.00
2024-05-09T02:57:06.566Z,600.00
2024-05-09T02:58:06.637Z,602.00
2024-05-09T02:59:06.804Z,603.00
2024-05-09T03:00:14.947Z,603.00
2024-05-09T03:01:07.925Z,603.00
2024-05-09T03:02:07.020Z,604.00
2024-05-09T03:03:07.203Z,604.00
2024-05-09T03:04:07.135Z,603.00
2024-05-09T03:05:06.955Z,601.00
2024-05-09T03:06:06.892Z,602.00
2024-05-09T03:07:06.933Z,601.00
2024-05-09T03:08:07.016Z,603.00
2024-05-09T03:09:07.016Z,602.00
2024-05-09T03:10:14.567Z,607.00
2024-05-09T03:11:08.209Z,607.00
2024-05-09T03:12:07.208Z,607.00
2024-05-09T03:13:07.151Z,605.00
2024-05-09T03:14:07.231Z,606.00
2024-05-09T03:15:07.197Z,602.00
2024-05-09T03:16:07.199Z,608.00
2024-05-09T03:17:17.394Z,608.00
2024-05-09T03:18:07.611Z,609.00
2024-05-09T03:19:07.275Z,609.00
2024-05-09T03:20:14.542Z,609.00
2024-05-09T03:21:08.358Z,609.00
2024-05-09T03:22:07.201Z,608.00
2024-05-09T03:23:07.462Z,610.00
2024-05-09T03:24:07.223Z,608.00
2024-05-09T03:25:07.234Z,606.00
2024-05-09T03:26:07.258Z,606.00
2024-05-09T03:27:07.272Z,606.00
2024-05-09T03:28:07.285Z,606.00
2024-05-09T03:29:07.402Z,603.00
2024-05-09T03:30:09.643Z,604.00
2024-05-09T03:31:07.539Z,605.00
2024-05-09T03:32:07.758Z,604.00
2024-05-09T03:33:08.125Z,606.00
2024-05-09T03:34:07.919Z,601.00
2024-05-09T03:35:07.874Z,604.00
2024-05-09T03:36:10.535Z,602.00
2024-05-09T03:37:07.885Z,608.00
2024-05-09T03:38:07.934Z,604.00
2024-05-09T03:39:07.896Z,607.00
2024-05-09T03:40:11.822Z,601.00
2024-05-09T03:41:08.964Z,602.00
2024-05-09T03:42:07.893Z,602.00
2024-05-09T03:43:07.896Z,603.00
2024-05-09T03:44:07.930Z,605.00
2024-05-09T03:45:07.915Z,605.00
2024-05-09T03:46:07.903Z,603.00
2024-05-09T03:47:08.030Z,602.00
2024-05-09T03:48:08.226Z,601.00
2024-05-09T03:49:08.076Z,606.00
2024-05-09T03:50:15.134Z,605.00
2024-05-09T03:51:09.214Z,605.00
2024-05-09T03:52:08.038Z,605.00
2024-05-09T03:53:08.116Z,605.00
2024-05-09T03:54:08.049Z,603.00
2024-05-09T03:55:08.047Z,604.00
2024-05-09T03:56:08.104Z,603.00
2024-05-09T03:57:08.063Z,602.00
2024-05-09T03:58:08.268Z,605.00
2024-05-09T03:59:08.160Z,606.00
2024-05-09T04:00:14.849Z,606.00
2024-05-09T04:01:09.296Z,606.00
2024-05-09T04:02:08.356Z,604.00
2024-05-09T04:03:10.967Z,603.00
2024-05-09T04:04:08.299Z,606.00
2024-05-09T04:05:08.304Z,604.00
2024-05-09T04:06:08.254Z,605.00
2024-05-09T04:07:08.289Z,603.00
2024-05-09T04:08:08.296Z,600.00
2024-05-09T04:09:08.276Z,600.00
2024-05-09T04:10:11.262Z,602.00
2024-05-09T04:11:09.336Z,602.00
2024-05-09T04:12:08.409Z,602.00
2024-05-09T04:13:08.278Z,602.00
2024-05-09T04:14:08.327Z,600.00
2024-05-09T04:15:12.071Z,607.00
2024-05-09T04:16:08.309Z,602.00
2024-05-09T04:17:08.323Z,603.00
2024-05-09T04:18:08.654Z,603.00
2024-05-09T04:19:08.411Z,603.00
2024-05-09T04:20:10.583Z,603.00
2024-05-09T04:21:08.465Z,602.00
2024-05-09T04:22:08.422Z,602.00
2024-05-09T04:23:09.264Z,602.00
2024-05-09T04:24:08.335Z,600.00
2024-05-09T04:25:08.340Z,599.00
2024-05-09T04:26:08.433Z,599.00
2024-05-09T04:27:08.352Z,605.00
2024-05-09T04:28:08.343Z,603.00
2024-05-09T04:29:09.094Z,600.00
2024-05-09T04:30:15.270Z,608.00
2024-05-09T04:31:09.347Z,608.00
2024-05-09T04:32:16.718Z,600.00
2024-05-09T04:33:16.787Z,600.00
2024-05-09T04:34:16.710Z,600.00
2024-05-09T04:35:16.760Z,600.00
2024-05-09T04:36:16.840Z,600.00
2024-05-09T04:37:16.970Z,602.00
2024-05-09T04:38:17.214Z,601.00
2024-05-09T04:39:17.205Z,601.00
2024-05-09T04:40:27.546Z,603.00
2024-05-09T04:41:18.334Z,603.00
2024-05-09T04:42:17.336Z,598.00
2024-05-09T04:43:17.516Z,599.00
2024-05-09T04:44:17.341Z,598.00
2024-05-09T04:45:17.374Z,595.00
2024-05-09T04:46:17.366Z,602.00
2024-05-09T04:47:17.534Z,601.00
2024-05-09T04:48:17.510Z,603.00
2024-05-09T04:49:17.535Z,603.00
2024-05-09T04:50:25.341Z,601.00
2024-05-09T04:51:18.359Z,601.00
2024-05-09T04:52:17.373Z,601.00
2024-05-09T04:53:17.692Z,601.00
2024-05-09T04:54:26.497Z,601.00
2024-05-09T04:55:18.359Z,601.00
2024-05-09T04:56:17.413Z,601.00
2024-05-09T04:57:17.385Z,601.00
2024-05-09T04:58:17.376Z,602.00
2024-05-09T04:59:17.441Z,602.00
2024-05-09T05:00:25.462Z,600.00
2024-05-09T05:01:18.455Z,600.00
2024-05-09T05:02:22.519Z,601.00
2024-05-09T05:03:17.808Z,600.00
2024-05-09T05:04:17.623Z,601.00
2024-05-09T05:05:17.576Z,602.00
2024-05-09T05:06:17.505Z,602.00
2024-05-09T05:07:17.622Z,602.00
2024-05-09T05:08:18.802Z,602.00
2024-05-09T05:09:17.818Z,600.00
2024-05-09T05:10:25.268Z,605.00
2024-05-09T05:11:19.024Z,605.00
2024-05-09T05:12:17.940Z,602.00
2024-05-09T05:13:18.935Z,602.00
2024-05-09T05:14:17.920Z,601.00
2024-05-09T05:15:17.872Z,599.00
2024-05-09T05:16:17.875Z,603.00
2024-05-09T05:17:17.936Z,602.00
2024-05-09T05:18:18.486Z,602.00
2024-05-09T05:19:18.023Z,602.00
2024-05-09T05:20:27.060Z,605.00
2024-05-09T05:21:19.141Z,605.00
2024-05-09T05:22:17.866Z,605.00
2024-05-09T05:23:17.975Z,601.00
2024-05-09T05:24:17.890Z,605.00
2024-05-09T05:25:17.895Z,600.00
2024-05-09T05:26:17.931Z,600.00
2024-05-09T05:27:17.928Z,600.00
2024-05-09T05:28:17.880Z,605.00
2024-05-09T05:29:20.821Z,601.00
2024-05-09T05:30:24.773Z,605.00
2024-05-09T05:31:18.955Z,605.00
2024-05-09T05:32:18.152Z,606.00
2024-05-09T05:33:18.396Z,607.00
2024-05-09T05:34:17.907Z,606.00
2024-05-09T05:35:18.032Z,609.00
2024-05-09T05:36:17.990Z,605.00
2024-05-09T05:37:17.916Z,606.00
2024-05-09T05:38:18.148Z,606.00
2024-05-09T05:39:17.933Z,608.00
2024-05-09T05:40:27.960Z,602.00
2024-05-09T05:41:19.066Z,603.00
2024-05-09T05:42:17.917Z,603.00
2024-05-09T05:43:18.115Z,604.00
2024-05-09T05:44:17.958Z,605.00
2024-05-09T05:45:17.920Z,604.00
2024-05-09T05:46:17.917Z,601.00
2024-05-09T05:47:17.999Z,602.00
2024-05-09T05:48:18.392Z,601.00
2024-05-09T05:49:18.090Z,603.00
2024-05-09T05:50:27.271Z,603.00
2024-05-09T05:51:19.165Z,603.00
2024-05-09T05:52:18.027Z,603.00
2024-05-09T05:53:18.122Z,600.00
2024-05-09T05:54:18.041Z,600.00
2024-05-09T05:55:18.024Z,601.00
2024-05-09T05:56:18.091Z,602.00
2024-05-09T05:57:18.028Z,606.00
2024-05-09T05:58:18.033Z,603.00
2024-05-09T05:59:18.313Z,603.00
2024-05-09T06:00:29.124Z,605.00
2024-05-09T06:01:19.301Z,605.00
2024-05-09T06:02:18.370Z,605.00
2024-05-09T06:03:18.282Z,606.00
2024-05-09T06:04:18.335Z,603.00
2024-05-09T06:05:18.381Z,600.00
2024-05-09T06:06:18.251Z,601.00
2024-05-09T06:07:18.279Z,601.00
2024-05-09T06:08:18.303Z,602.00
2024-05-09T06:09:18.292Z,606.00
2024-05-09T06:10:25.178Z,607.00
2024-05-09T06:11:19.398Z,607.00
2024-05-09T06:12:18.332Z,607.00
2024-05-09T06:13:18.284Z,606.00
2024-05-09T06:14:18.372Z,604.00
2024-05-09T06:15:18.286Z,608.00
2024-05-09T06:16:18.289Z,602.00
2024-05-09T06:17:18.440Z,605.00
2024-05-09T06:18:18.674Z,604.00
2024-05-09T06:19:18.362Z,603.00
2024-05-09T06:20:23.994Z,604.00
2024-05-09T06:21:19.492Z,604.00
2024-05-09T06:22:18.292Z,604.00
2024-05-09T06:23:18.431Z,603.00
2024-05-09T06:24:18.292Z,605.00
2024-05-09T06:25:18.294Z,604.00
2024-05-09T06:26:18.366Z,605.00
2024-05-09T06:27:18.305Z,601.00
2024-05-09T06:28:18.302Z,603.00
2024-05-09T06:29:18.339Z,604.00
2024-05-09T06:31:18.288Z,604.00
2024-05-09T06:32:18.370Z,608.00
2024-05-09T06:33:18.599Z,604.00
2024-05-09T06:34:18.486Z,606.00
2024-05-09T06:35:18.426Z,603.00
2024-05-09T06:36:18.315Z,604.00
2024-05-09T06:37:18.321Z,602.00
2024-05-09T06:38:18.368Z,605.00
2024-05-09T06:39:18.358Z,603.00
2024-05-09T06:40:25.444Z,601.00
2024-05-09T06:41:19.386Z,601.00
2024-05-09T06:42:18.335Z,602.00
2024-05-09T06:43:19.617Z,603.00
2024-05-09T06:44:18.392Z,602.00
2024-05-09T06:45:18.346Z,605.00
2024-05-09T06:46:18.346Z,603.00
2024-05-09T06:47:18.441Z,603.00
2024-05-09T06:48:18.792Z,603.00
2024-05-09T06:49:18.573Z,605.00
2024-05-09T06:50:23.918Z,602.00
2024-05-09T06:51:19.384Z,602.00
2024-05-09T06:52:18.347Z,603.00
2024-05-09T06:53:18.372Z,603.00
2024-05-09T06:54:18.356Z,603.00
2024-05-09T06:55:18.449Z,601.00
2024-05-09T06:56:18.423Z,606.00
2024-05-09T06:57:18.367Z,606.00
2024-05-09T06:58:18.358Z,601.00
2024-05-09T06:59:18.471Z,600.00
2024-05-09T07:00:26.895Z,600.00
2024-05-09T07:01:19.421Z,600.00
2024-05-09T07:02:18.453Z,601.00
2024-05-09T07:03:19.480Z,601.00
2024-05-09T07:04:18.462Z,603.00
2024-05-09T07:05:18.484Z,600.00
2024-05-09T07:06:18.485Z,604.00
2024-05-09T07:07:18.395Z,601.00
2024-05-09T07:08:18.550Z,604.00
2024-05-09T07:09:18.390Z,603.00
2024-05-09T07:10:25.721Z,604.00
2024-05-09T07:11:19.462Z,604.00
2024-05-09T07:12:18.550Z,605.00
2024-05-09T07:13:18.387Z,604.00
2024-05-09T07:14:18.525Z,605.00
2024-05-09T07:15:18.402Z,605.00
2024-05-09T07:16:18.405Z,605.00
2024-05-09T07:17:18.459Z,604.00
2024-05-09T07:18:19.316Z,602.00
2024-05-09T07:19:18.678Z,603.00
2024-05-09T07:20:23.761Z,600.00
2024-05-09T07:21:19.676Z,601.00
2024-05-09T07:22:18.534Z,601.00
2024-05-09T07:23:18.760Z,602.00
2024-05-09T07:24:18.540Z,604.00
2024-05-09T07:25:18.550Z,603.00
2024-05-09T07:26:18.765Z,603.00
2024-05-09T07:27:18.560Z,605.00
2024-05-09T07:28:18.702Z,604.00
2024-05-09T07:29:18.696Z,603.00
2024-05-09T07:30:23.821Z,604.00
2024-05-09T07:31:19.578Z,604.00
2024-05-09T07:32:19.047Z,604.00
2024-05-09T07:33:19.553Z,605.00
2024-05-09T07:34:19.093Z,603.00
2024-05-09T07:35:18.567Z,605.00
2024-05-09T07:36:18.566Z,604.00
2024-05-09T07:37:18.572Z,603.00
2024-05-09T07:38:18.729Z,603.00
2024-05-09T07:39:18.668Z,600.00
2024-05-09T07:40:28.461Z,603.00
2024-05-09T07:41:19.608Z,603.00
2024-05-09T07:42:18.589Z,604.00
2024-05-09T07:43:18.590Z,602.00
2024-05-09T07:44:18.640Z,601.00
2024-05-09T07:47:14.456Z,605.00
2024-05-09T07:48:29.207Z,605.00
2024-05-09T07:53:38.234Z,605.00
2024-05-09T07:54:19.849Z,605.00
2024-05-09T07:55:18.944Z,607.00
2024-05-09T07:56:20.379Z,607.00
2024-05-09T07:57:18.725Z,605.00
2024-05-09T07:58:18.703Z,605.00
2024-05-09T07:59:18.646Z,605.00
2024-05-09T08:00:23.823Z,606.00
2024-05-09T08:01:20.037Z,605.00
2024-05-09T08:02:18.723Z,605.00
2024-05-09T08:03:18.826Z,605.00
2024-05-09T08:04:18.733Z,605.00
2024-05-09T08:05:18.807Z,602.00
2024-05-09T08:06:18.669Z,603.00
2024-05-09T08:07:18.711Z,604.00
2024-05-09T08:08:18.691Z,603.00
2024-05-09T08:09:21.243Z,601.00
2024-05-09T08:10:22.253Z,606.00
2024-05-09T08:11:19.769Z,606.00
2024-05-09T08:12:18.663Z,606.00
2024-05-09T08:13:18.817Z,607.00
2024-05-09T08:14:18.677Z,602.00
2024-05-09T08:15:18.680Z,604.00
2024-05-09T08:16:18.927Z,605.00
2024-05-09T08:17:18.730Z,602.00
2024-05-09T08:18:18.789Z,602.00
2024-05-09T08:19:18.805Z,604.00
2024-05-09T08:20:27.078Z,600.00
2024-05-09T08:21:19.751Z,600.00
2024-05-09T08:22:18.690Z,601.00
2024-05-09T08:23:18.674Z,601.00
2024-05-09T08:24:18.713Z,602.00
2024-05-09T08:25:18.757Z,601.00
2024-05-09T08:26:18.699Z,601.00
2024-05-09T08:27:18.698Z,605.00
2024-05-09T08:28:18.900Z,606.00
2024-05-09T08:29:18.851Z,606.00
2024-05-09T08:30:25.197Z,600.00
2024-05-09T08:31:20.051Z,600.00
2024-05-09T08:32:18.990Z,602.00
2024-05-09T08:33:19.009Z,603.00
2024-05-09T08:34:19.060Z,605.00
2024-05-09T08:35:18.955Z,606.00
2024-05-09T08:36:18.966Z,607.00
2024-05-09T08:37:22.533Z,601.00
2024-05-09T08:38:20.033Z,601.00
2024-05-09T08:39:18.953Z,602.00
2024-05-09T08:40:27.295Z,603.00
2024-05-09T08:41:19.985Z,601.00
2024-05-09T08:42:18.966Z,602.00
2024-05-09T08:43:19.276Z,603.00
2024-05-09T08:44:19.004Z,605.00
2024-05-09T08:45:18.982Z,608.00
2024-05-09T08:46:19.262Z,609.00
2024-05-09T08:47:19.001Z,606.00
2024-05-09T08:48:19.311Z,602.00
2024-05-09T08:49:19.044Z,602.00
2024-05-09T08:50:28.941Z,608.00
2024-05-09T08:51:19.984Z,608.00
2024-05-09T08:52:19.073Z,607.00
2024-05-09T08:53:19.009Z,606.00
2024-05-09T08:54:18.998Z,604.00
2024-05-09T08:55:19.047Z,603.00
2024-05-09T08:56:18.982Z,607.00
2024-05-09T08:57:18.993Z,608.00
2024-05-09T08:58:19.235Z,606.00
2024-05-09T08:59:18.994Z,605.00
2024-05-09T09:00:29.260Z,606.00
2024-05-09T09:01:20.117Z,606.00
2024-05-09T09:02:19.457Z,605.00
2024-05-09T09:03:27.017Z,600.00
2024-05-09T09:04:26.884Z,600.00
2024-05-09T09:05:26.916Z,600.00
2024-05-09T09:06:26.982Z,600.00
2024-05-09T09:07:27.075Z,600.00
2024-05-09T09:08:27.087Z,603.00
2024-05-09T09:09:27.282Z,606.00
2024-05-09T09:10:32.024Z,604.00
2024-05-09T09:11:28.344Z,604.00
2024-05-09T09:12:27.385Z,604.00
2024-05-09T09:13:27.332Z,599.00
2024-05-09T09:14:27.306Z,600.00
2024-05-09T09:15:27.373Z,600.00
2024-05-09T09:16:27.371Z,602.00
2024-05-09T09:17:27.416Z,604.00
2024-05-09T09:18:27.835Z,603.00
2024-05-09T09:19:27.429Z,605.00
2024-05-09T09:20:34.223Z,604.00
2024-05-09T09:21:28.338Z,604.00
2024-05-09T09:22:27.325Z,604.00
2024-05-09T09:23:27.335Z,604.00
2024-05-09T09:24:27.378Z,605.00
2024-05-09T09:25:27.319Z,605.00
2024-05-09T09:26:27.328Z,602.00
2024-05-09T09:27:27.369Z,606.00
2024-05-09T09:28:27.369Z,604.00
2024-05-09T09:29:27.410Z,602.00
2024-05-09T09:30:35.243Z,605.00
2024-05-09T09:31:28.708Z,605.00
2024-05-09T09:32:27.621Z,605.00
2024-05-09T09:33:27.582Z,602.00
2024-05-09T09:34:27.737Z,605.00
2024-05-09T09:35:27.540Z,601.00
2024-05-09T09:36:27.583Z,603.00
2024-05-09T09:37:27.559Z,601.00
2024-05-09T09:38:27.555Z,605.00
2024-05-09T09:39:27.731Z,602.00
2024-05-09T09:40:32.020Z,602.00
2024-05-09T09:41:28.785Z,602.00
2024-05-09T09:42:27.880Z,602.00
2024-05-09T09:43:27.842Z,603.00
2024-05-09T09:44:27.783Z,601.00
2024-05-09T09:45:27.858Z,599.00
2024-05-09T09:46:27.884Z,602.00
2024-05-09T09:47:27.937Z,604.00
2024-05-09T09:48:27.988Z,608.00
2024-05-09T09:49:27.977Z,604.00
2024-05-09T09:50:34.101Z,608.00
2024-05-09T09:51:29.132Z,608.00
2024-05-09T09:52:28.125Z,608.00
2024-05-09T09:53:28.098Z,608.00
2024-05-09T09:54:28.125Z,609.00
2024-05-09T09:55:28.107Z,609.00
2024-05-09T09:56:28.150Z,611.00
2024-05-09T09:57:28.139Z,607.00
2024-05-09T09:58:28.275Z,608.00
2024-05-09T09:59:28.121Z,607.00
2024-05-09T10:00:32.862Z,608.00
2024-05-09T10:01:29.213Z,608.00
2024-05-09T10:02:28.250Z,608.00
2024-05-09T10:03:28.270Z,609.00
2024-05-09T10:04:28.266Z,609.00
2024-05-09T10:05:28.322Z,608.00
2024-05-09T10:06:28.138Z,608.00
2024-05-09T10:07:28.124Z,610.00
2024-05-09T10:08:28.140Z,608.00
2024-05-09T10:09:28.161Z,607.00
2024-05-09T10:10:32.322Z,609.00
2024-05-09T10:11:29.187Z,609.00
2024-05-09T10:12:28.237Z,610.00
2024-05-09T10:13:28.215Z,609.00
2024-05-09T10:14:28.143Z,608.00
2024-05-09T10:15:28.242Z,606.00
2024-05-09T10:16:28.206Z,606.00
2024-05-09T10:17:28.210Z,605.00
2024-05-09T10:18:30.380Z,606.00
2024-05-09T10:19:28.369Z,604.00
2024-05-09T10:20:32.386Z,605.00
2024-05-09T10:21:28.230Z,605.00
2024-05-09T10:22:28.278Z,606.00
2024-05-09T10:23:28.272Z,606.00
2024-05-09T10:24:28.239Z,605.00
2024-05-09T10:25:28.290Z,604.00
2024-05-09T10:26:28.201Z,601.00
2024-05-09T10:27:28.247Z,602.00
2024-05-09T10:28:28.246Z,604.00
2024-05-09T10:29:28.250Z,605.00
2024-05-09T10:30:34.154Z,608.00
2024-05-09T10:31:29.287Z,608.00
2024-05-09T10:32:28.477Z,607.00
2024-05-09T10:33:28.420Z,605.00
2024-05-09T10:34:28.381Z,603.00
2024-05-09T10:35:28.269Z,604.00
2024-05-09T10:36:28.301Z,604.00
2024-05-09T10:37:28.339Z,605.00
2024-05-09T10:38:28.289Z,602.00
2024-05-09T10:39:28.452Z,605.00
2024-05-09T10:40:31.412Z,605.00
2024-05-09T10:41:28.539Z,601.00
2024-05-09T10:42:28.578Z,603.00
2024-05-09T10:43:28.562Z,604.00
2024-05-09T10:44:28.546Z,601.00
2024-05-09T10:45:28.580Z,603.00
2024-05-09T10:46:28.591Z,606.00
2024-05-09T10:47:28.675Z,604.00
2024-05-09T10:48:28.658Z,605.00
2024-05-09T10:49:28.572Z,604.00
2024-05-09T10:50:31.986Z,605.00
2024-05-09T10:51:29.611Z,605.00
2024-05-09T10:52:28.609Z,606.00
2024-05-09T10:53:28.542Z,606.00
2024-05-09T10:54:28.600Z,608.00
2024-05-09T10:55:28.582Z,607.00
2024-05-09T10:56:28.562Z,605.00
2024-05-09T10:57:28.629Z,603.00
2024-05-09T10:58:42.701Z,604.00
2024-05-09T10:59:28.600Z,605.00
2024-05-09T11:00:33.846Z,607.00
2024-05-09T11:01:29.654Z,605.00
2024-05-09T11:02:28.734Z,607.00
2024-05-09T11:03:28.736Z,608.00
2024-05-09T11:04:28.647Z,610.00
2024-05-09T11:05:28.737Z,615.00
2024-05-09T11:06:28.591Z,612.00
2024-05-09T11:07:28.631Z,613.00
2024-05-09T11:08:28.710Z,612.00
2024-05-09T11:09:28.913Z,611.00
2024-05-09T11:10:33.765Z,608.00
2024-05-09T11:11:29.997Z,608.00
2024-05-09T11:12:29.009Z,609.00
2024-05-09T11:13:29.000Z,608.00
2024-05-09T11:14:28.973Z,609.00
2024-05-09T11:15:29.011Z,611.00
2024-05-09T11:16:29.024Z,607.00
2024-05-09T11:17:29.094Z,611.00
2024-05-09T11:18:31.880Z,608.00
2024-05-09T11:19:30.066Z,608.00
2024-05-09T11:20:30.012Z,609.00
2024-05-09T11:21:29.020Z,608.00
2024-05-09T11:22:28.976Z,609.00
2024-05-09T11:23:28.993Z,609.00
2024-05-09T11:24:29.056Z,609.00
2024-05-09T11:25:28.996Z,609.00
2024-05-09T11:26:29.004Z,609.00
2024-05-09T11:27:29.025Z,610.00
2024-05-09T11:28:29.224Z,607.00
2024-05-09T11:29:29.024Z,609.00
2024-05-09T11:30:31.901Z,606.00
2024-05-09T11:31:29.113Z,606.00
2024-05-09T11:32:29.392Z,606.00
2024-05-09T11:33:29.134Z,607.00
2024-05-09T11:34:29.061Z,606.00
2024-05-09T11:35:28.992Z,606.00
2024-05-09T11:36:29.067Z,612.00
2024-05-09T11:37:29.009Z,607.00
2024-05-09T11:38:29.012Z,610.00
2024-05-09T11:39:29.030Z,608.00
2024-05-09T11:40:34.175Z,610.00
2024-05-09T11:41:30.004Z,611.00
2024-05-09T11:42:29.030Z,610.00
2024-05-09T11:43:29.047Z,608.00
2024-05-09T11:44:29.048Z,608.00
2024-05-09T11:45:29.028Z,607.00
2024-05-09T11:46:29.057Z,612.00
2024-05-09T11:47:29.079Z,611.00
2024-05-09T11:48:29.157Z,610.00
2024-05-09T11:49:29.246Z,610.00
2024-05-09T11:50:33.182Z,609.00
2024-05-09T11:51:30.289Z,609.00
2024-05-09T11:52:29.237Z,610.00
2024-05-09T11:53:29.343Z,610.00
2024-05-09T11:54:29.300Z,609.00
2024-05-09T11:55:29.454Z,607.00
2024-05-09T11:56:29.264Z,607.00
2024-05-09T11:57:29.331Z,608.00
2024-05-09T11:58:29.306Z,606.00
2024-05-09T11:59:29.258Z,606.00
2024-05-09T12:00:36.200Z,608.00
2024-05-09T12:01:30.481Z,608.00
2024-05-09T12:02:29.411Z,608.00
2024-05-09T12:03:29.361Z,609.00
2024-05-09T12:04:29.455Z,607.00
2024-05-09T12:05:29.485Z,605.00
2024-05-09T12:06:29.382Z,603.00
2024-05-09T12:07:29.327Z,607.00
2024-05-09T12:08:29.324Z,603.00
2024-05-09T12:09:29.395Z,605.00
2024-05-09T12:10:32.913Z,606.00
2024-05-09T12:11:30.515Z,606.00
2024-05-09T12:12:29.466Z,606.00
2024-05-09T12:13:29.526Z,605.00
2024-05-09T12:14:29.494Z,606.00
2024-05-09T12:15:29.549Z,606.00
2024-05-09T12:16:29.616Z,605.00
2024-05-09T12:17:29.681Z,607.00
2024-05-09T12:18:29.815Z,603.00
2024-05-09T12:19:29.535Z,605.00
2024-05-09T12:20:36.187Z,602.00
2024-05-09T12:21:30.516Z,602.00
2024-05-09T12:22:29.491Z,603.00
2024-05-09T12:23:29.486Z,603.00
2024-05-09T12:24:29.552Z,604.00
2024-05-09T12:25:29.495Z,608.00
2024-05-09T12:26:29.493Z,607.00
2024-05-09T12:27:29.513Z,605.00
2024-05-09T12:28:29.530Z,604.00
2024-05-09T12:29:29.634Z,603.00
2024-05-09T12:30:36.404Z,603.00
2024-05-09T12:31:30.842Z,603.00
2024-05-09T12:32:29.801Z,603.00
2024-05-09T12:33:29.872Z,604.00
2024-05-09T12:34:29.968Z,604.00
2024-05-09T12:35:29.774Z,604.00
2024-05-09T12:36:29.820Z,606.00